sensor_id;sensor_type;location;lat;lon;timestamp;P1;durP1;ratioP1;P2;durP2;ratioP2
77888;SDS011;67082;41.704;44.768;2023-02-28T00:01:32;9.90;;;5.93;;
77888;SDS011;67082;41.704;44.768;2023-02-28T00:04:01;12.30;;;6.13;;
77888;SDS011;67082;41.704;44.768;2023-02-28T00:06:29;12.40;;;6.38;;
77888;SDS011;67082;41.704;44.768;2023-02-28T00:08:57;11.68;;;6.20;;
77888;SDS011;67082;41.704;44.768;2023-02-28T00:11:26;13.95;;;6.10;;
77888;SDS011;67082;41.704;44.768;2023-02-28T00:13:55;10.32;;;5.80;;
77888;SDS011;67082;41.704;44.768;2023-02-28T00:16:23;14.85;;;6.05;;
77888;SDS011;67082;41.704;44.768;2023-02-28T00:18:52;12.32;;;6.40;;
77888;SDS011;67082;41.704;44.768;2023-02-28T00:21:20;14.55;;;6.20;;
77888;SDS011;67082;41.704;44.768;2023-02-28T00:23:49;13.23;;;5.70;;
77888;SDS011;67082;41.704;44.768;2023-02-28T00:26:17;10.18;;;5.55;;
77888;SDS011;67082;41.704;44.768;2023-02-28T00:28:49;13.65;;;5.70;;
77888;SDS011;67082;41.704;44.768;2023-02-28T00:31:22;10.57;;;5.57;;
77888;SDS011;67082;41.704;44.768;2023-02-28T00:33:50;13.63;;;6.15;;
77888;SDS011;67082;41.704;44.768;2023-02-28T00:36:20;10.10;;;5.75;;
77888;SDS011;67082;41.704;44.768;2023-02-28T00:38:51;14.60;;;6.25;;
77888;SDS011;67082;41.704;44.768;2023-02-28T00:41:19;16.08;;;6.40;;
77888;SDS011;67082;41.704;44.768;2023-02-28T00:43:48;12.40;;;6.65;;
77888;SDS011;67082;41.704;44.768;2023-02-28T00:46:16;12.88;;;6.57;;
77888;SDS011;67082;41.704;44.768;2023-02-28T00:48:45;12.65;;;6.55;;
77888;SDS011;67082;41.704;44.768;2023-02-28T00:51:14;13.40;;;6.88;;
77888;SDS011;67082;41.704;44.768;2023-02-28T00:53:42;14.40;;;6.93;;
77888;SDS011;67082;41.704;44.768;2023-02-28T00:56:10;12.02;;;6.55;;
77888;SDS011;67082;41.704;44.768;2023-02-28T00:58:39;12.80;;;6.15;;
77888;SDS011;67082;41.704;44.768;2023-02-28T01:01:07;11.80;;;6.43;;
77888;SDS011;67082;41.704;44.768;2023-02-28T01:03:40;13.68;;;6.47;;
77888;SDS011;67082;41.704;44.768;2023-02-28T01:06:10;12.25;;;6.15;;
77888;SDS011;67082;41.704;44.768;2023-02-28T01:08:38;13.48;;;6.47;;
77888;SDS011;67082;41.704;44.768;2023-02-28T01:11:07;13.32;;;6.45;;
77888;SDS011;67082;41.704;44.768;2023-02-28T01:13:40;15.75;;;7.20;;
77888;SDS011;67082;41.704;44.768;2023-02-28T01:16:11;16.80;;;6.30;;
77888;SDS011;67082;41.704;44.768;2023-02-28T01:18:40;14.15;;;6.53;;
77888;SDS011;67082;41.704;44.768;2023-02-28T01:21:10;14.20;;;6.53;;
77888;SDS011;67082;41.704;44.768;2023-02-28T01:23:41;18.17;;;7.22;;
77888;SDS011;67082;41.704;44.768;2023-02-28T01:26:12;13.95;;;6.63;;
77888;SDS011;67082;41.704;44.768;2023-02-28T01:28:51;15.40;;;7.32;;
77888;SDS011;67082;41.704;44.768;2023-02-28T01:31:20;15.70;;;6.75;;
77888;SDS011;67082;41.704;44.768;2023-02-28T01:33:49;18.00;;;7.35;;
77888;SDS011;67082;41.704;44.768;2023-02-28T01:36:20;14.70;;;7.10;;
77888;SDS011;67082;41.704;44.768;2023-02-28T01:38:50;17.65;;;8.15;;
77888;SDS011;67082;41.704;44.768;2023-02-28T01:41:24;13.70;;;7.03;;
77888;SDS011;67082;41.704;44.768;2023-02-28T01:46:31;14.65;;;7.93;;
77888;SDS011;67082;41.704;44.768;2023-02-28T01:49:04;12.35;;;7.10;;
77888;SDS011;67082;41.704;44.768;2023-02-28T01:54:10;15.00;;;7.82;;
77888;SDS011;67082;41.704;44.768;2023-02-28T01:56:44;14.45;;;7.90;;
77888;SDS011;67082;41.704;44.768;2023-02-28T01:59:45;14.63;;;7.65;;
77888;SDS011;67082;41.704;44.768;2023-02-28T02:02:18;15.30;;;7.60;;
77888;SDS011;67082;41.704;44.768;2023-02-28T02:04:56;16.33;;;8.38;;
77888;SDS011;67082;41.704;44.768;2023-02-28T02:07:32;13.50;;;7.35;;
77888;SDS011;67082;41.704;44.768;2023-02-28T02:12:57;16.65;;;7.13;;
77888;SDS011;67082;41.704;44.768;2023-02-28T02:16:21;17.63;;;7.57;;
77888;SDS011;67082;41.704;44.768;2023-02-28T02:18:57;18.42;;;7.82;;
77888;SDS011;67082;41.704;44.768;2023-02-28T02:36:19;17.25;;;8.23;;
77888;SDS011;67082;41.704;44.768;2023-02-28T02:41:51;16.02;;;7.80;;
77888;SDS011;67082;41.704;44.768;2023-02-28T02:47:04;15.73;;;8.68;;
77888;SDS011;67082;41.704;44.768;2023-02-28T02:49:40;16.95;;;7.63;;
77888;SDS011;67082;41.704;44.768;2023-02-28T02:52:14;16.42;;;7.53;;
77888;SDS011;67082;41.704;44.768;2023-02-28T02:54:46;18.27;;;7.97;;
77888;SDS011;67082;41.704;44.768;2023-02-28T02:57:27;16.08;;;8.38;;
77888;SDS011;67082;41.704;44.768;2023-02-28T03:00:13;18.15;;;8.77;;
77888;SDS011;67082;41.704;44.768;2023-02-28T03:02:46;19.58;;;8.82;;
77888;SDS011;67082;41.704;44.768;2023-02-28T03:05:38;20.08;;;8.63;;
77888;SDS011;67082;41.704;44.768;2023-02-28T03:08:16;21.77;;;9.00;;
77888;SDS011;67082;41.704;44.768;2023-02-28T03:10:46;18.58;;;9.13;;
77888;SDS011;67082;41.704;44.768;2023-02-28T03:21:21;26.98;;;9.38;;
77888;SDS011;67082;41.704;44.768;2023-02-28T03:24:05;17.52;;;8.57;;
77888;SDS011;67082;41.704;44.768;2023-02-28T03:26:41;16.42;;;9.43;;
77888;SDS011;67082;41.704;44.768;2023-02-28T03:29:33;17.92;;;8.73;;
77888;SDS011;67082;41.704;44.768;2023-02-28T03:32:08;17.00;;;8.95;;
77888;SDS011;67082;41.704;44.768;2023-02-28T03:34:49;19.67;;;9.00;;
77888;SDS011;67082;41.704;44.768;2023-02-28T03:37:24;19.35;;;8.90;;
77888;SDS011;67082;41.704;44.768;2023-02-28T03:42:46;19.33;;;9.40;;
77888;SDS011;67082;41.704;44.768;2023-02-28T03:45:18;19.10;;;9.45;;
77888;SDS011;67082;41.704;44.768;2023-02-28T03:47:57;17.77;;;8.75;;
77888;SDS011;67082;41.704;44.768;2023-02-28T03:53:06;18.23;;;8.93;;
77888;SDS011;67082;41.704;44.768;2023-02-28T03:55:58;18.52;;;8.25;;
77888;SDS011;67082;41.704;44.768;2023-02-28T04:03:49;17.90;;;7.80;;
77888;SDS011;67082;41.704;44.768;2023-02-28T04:06:18;16.98;;;7.95;;
77888;SDS011;67082;41.704;44.768;2023-02-28T04:08:48;21.00;;;8.98;;
77888;SDS011;67082;41.704;44.768;2023-02-28T04:11:21;19.38;;;9.02;;
77888;SDS011;67082;41.704;44.768;2023-02-28T04:13:51;16.70;;;8.75;;
77888;SDS011;67082;41.704;44.768;2023-02-28T04:16:19;23.35;;;9.70;;
77888;SDS011;67082;41.704;44.768;2023-02-28T04:19:05;22.38;;;10.23;;
77888;SDS011;67082;41.704;44.768;2023-02-28T04:21:35;22.75;;;9.30;;
77888;SDS011;67082;41.704;44.768;2023-02-28T04:24:07;19.08;;;9.38;;
77888;SDS011;67082;41.704;44.768;2023-02-28T04:26:43;22.73;;;8.80;;
77888;SDS011;67082;41.704;44.768;2023-02-28T04:29:14;19.90;;;9.50;;
77888;SDS011;67082;41.704;44.768;2023-02-28T04:31:47;18.17;;;9.02;;
77888;SDS011;67082;41.704;44.768;2023-02-28T04:34:15;19.75;;;9.13;;
77888;SDS011;67082;41.704;44.768;2023-02-28T04:36:44;19.45;;;10.35;;
77888;SDS011;67082;41.704;44.768;2023-02-28T04:39:40;18.85;;;9.13;;
77888;SDS011;67082;41.704;44.768;2023-02-28T04:42:09;25.92;;;9.77;;
77888;SDS011;67082;41.704;44.768;2023-02-28T04:44:38;22.80;;;10.32;;
77888;SDS011;67082;41.704;44.768;2023-02-28T04:47:06;23.70;;;9.93;;
77888;SDS011;67082;41.704;44.768;2023-02-28T04:49:35;20.23;;;9.90;;
77888;SDS011;67082;41.704;44.768;2023-02-28T04:52:02;26.38;;;12.30;;
77888;SDS011;67082;41.704;44.768;2023-02-28T04:54:31;23.15;;;11.05;;
77888;SDS011;67082;41.704;44.768;2023-02-28T04:56:59;19.75;;;8.70;;
77888;SDS011;67082;41.704;44.768;2023-02-28T04:59:29;22.58;;;9.80;;
77888;SDS011;67082;41.704;44.768;2023-02-28T05:01:57;22.35;;;9.60;;
77888;SDS011;67082;41.704;44.768;2023-02-28T05:04:26;22.08;;;9.77;;
77888;SDS011;67082;41.704;44.768;2023-02-28T05:06:54;22.63;;;10.07;;
77888;SDS011;67082;41.704;44.768;2023-02-28T05:09:23;20.63;;;10.75;;
77888;SDS011;67082;41.704;44.768;2023-02-28T05:11:51;19.80;;;9.63;;
77888;SDS011;67082;41.704;44.768;2023-02-28T05:14:20;22.92;;;9.52;;
77888;SDS011;67082;41.704;44.768;2023-02-28T05:16:50;20.52;;;9.43;;
77888;SDS011;67082;41.704;44.768;2023-02-28T05:19:18;23.23;;;9.82;;
77888;SDS011;67082;41.704;44.768;2023-02-28T05:21:52;25.73;;;11.73;;
77888;SDS011;67082;41.704;44.768;2023-02-28T05:24:25;25.15;;;10.43;;
77888;SDS011;67082;41.704;44.768;2023-02-28T05:26:53;29.80;;;11.35;;
77888;SDS011;67082;41.704;44.768;2023-02-28T05:29:23;28.63;;;11.45;;
77888;SDS011;67082;41.704;44.768;2023-02-28T05:31:51;24.55;;;11.25;;
77888;SDS011;67082;41.704;44.768;2023-02-28T05:34:20;27.75;;;11.80;;
77888;SDS011;67082;41.704;44.768;2023-02-28T05:36:47;27.42;;;11.38;;
77888;SDS011;67082;41.704;44.768;2023-02-28T05:39:16;27.25;;;11.38;;
77888;SDS011;67082;41.704;44.768;2023-02-28T05:41:44;23.48;;;11.40;;
77888;SDS011;67082;41.704;44.768;2023-02-28T05:44:12;28.30;;;12.10;;
77888;SDS011;67082;41.704;44.768;2023-02-28T05:46:40;21.92;;;12.05;;
77888;SDS011;67082;41.704;44.768;2023-02-28T05:49:08;30.30;;;12.90;;
77888;SDS011;67082;41.704;44.768;2023-02-28T05:51:36;27.92;;;13.57;;
77888;SDS011;67082;41.704;44.768;2023-02-28T05:54:07;29.83;;;13.80;;
77888;SDS011;67082;41.704;44.768;2023-02-28T05:56:36;32.95;;;13.63;;
77888;SDS011;67082;41.704;44.768;2023-02-28T05:59:07;29.75;;;14.00;;
77888;SDS011;67082;41.704;44.768;2023-02-28T06:01:36;31.63;;;13.30;;
77888;SDS011;67082;41.704;44.768;2023-02-28T06:04:09;32.85;;;14.45;;
77888;SDS011;67082;41.704;44.768;2023-02-28T06:06:55;26.33;;;13.68;;
77888;SDS011;67082;41.704;44.768;2023-02-28T06:09:25;29.45;;;13.73;;
77888;SDS011;67082;41.704;44.768;2023-02-28T06:11:54;36.78;;;13.73;;
77888;SDS011;67082;41.704;44.768;2023-02-28T06:14:23;27.73;;;13.65;;
77888;SDS011;67082;41.704;44.768;2023-02-28T06:16:51;31.58;;;13.88;;
77888;SDS011;67082;41.704;44.768;2023-02-28T06:19:20;30.92;;;13.43;;
77888;SDS011;67082;41.704;44.768;2023-02-28T06:21:50;35.72;;;13.48;;
77888;SDS011;67082;41.704;44.768;2023-02-28T06:24:21;26.38;;;14.18;;
77888;SDS011;67082;41.704;44.768;2023-02-28T06:26:50;27.27;;;13.00;;
77888;SDS011;67082;41.704;44.768;2023-02-28T06:29:18;37.72;;;14.38;;
77888;SDS011;67082;41.704;44.768;2023-02-28T06:31:47;30.65;;;13.48;;
77888;SDS011;67082;41.704;44.768;2023-02-28T06:34:16;33.30;;;13.57;;
77888;SDS011;67082;41.704;44.768;2023-02-28T06:36:44;27.50;;;13.30;;
77888;SDS011;67082;41.704;44.768;2023-02-28T06:39:12;35.83;;;13.25;;
77888;SDS011;67082;41.704;44.768;2023-02-28T06:41:41;31.98;;;13.70;;
77888;SDS011;67082;41.704;44.768;2023-02-28T06:44:22;32.55;;;13.82;;
77888;SDS011;67082;41.704;44.768;2023-02-28T06:46:52;27.13;;;13.27;;
77888;SDS011;67082;41.704;44.768;2023-02-28T06:49:21;29.80;;;13.73;;
77888;SDS011;67082;41.704;44.768;2023-02-28T06:51:49;27.05;;;12.68;;
77888;SDS011;67082;41.704;44.768;2023-02-28T06:54:17;26.33;;;13.57;;
77888;SDS011;67082;41.704;44.768;2023-02-28T06:56:47;26.02;;;12.73;;
77888;SDS011;67082;41.704;44.768;2023-02-28T06:59:16;33.80;;;13.35;;
77888;SDS011;67082;41.704;44.768;2023-02-28T07:01:45;31.05;;;13.52;;
77888;SDS011;67082;41.704;44.768;2023-02-28T07:04:13;27.25;;;12.98;;
77888;SDS011;67082;41.704;44.768;2023-02-28T07:06:41;28.83;;;12.35;;
77888;SDS011;67082;41.704;44.768;2023-02-28T07:09:10;31.48;;;13.57;;
77888;SDS011;67082;41.704;44.768;2023-02-28T07:11:38;27.27;;;13.63;;
77888;SDS011;67082;41.704;44.768;2023-02-28T07:14:06;25.55;;;13.70;;
77888;SDS011;67082;41.704;44.768;2023-02-28T07:16:35;27.85;;;12.55;;
77888;SDS011;67082;41.704;44.768;2023-02-28T07:19:03;29.23;;;12.02;;
77888;SDS011;67082;41.704;44.768;2023-02-28T07:21:32;22.55;;;11.60;;
77888;SDS011;67082;41.704;44.768;2023-02-28T07:24:00;23.92;;;11.82;;
77888;SDS011;67082;41.704;44.768;2023-02-28T07:26:28;32.65;;;12.57;;
77888;SDS011;67082;41.704;44.768;2023-02-28T07:28:56;25.63;;;12.18;;
77888;SDS011;67082;41.704;44.768;2023-02-28T07:31:25;25.08;;;12.13;;
77888;SDS011;67082;41.704;44.768;2023-02-28T07:33:56;29.83;;;12.88;;
77888;SDS011;67082;41.704;44.768;2023-02-28T07:36:26;27.80;;;12.68;;
77888;SDS011;67082;41.704;44.768;2023-02-28T07:38:55;35.72;;;12.57;;
77888;SDS011;67082;41.704;44.768;2023-02-28T07:41:23;26.63;;;12.27;;
77888;SDS011;67082;41.704;44.768;2023-02-28T07:43:55;31.02;;;13.25;;
77888;SDS011;67082;41.704;44.768;2023-02-28T07:46:25;39.45;;;12.85;;
77888;SDS011;67082;41.704;44.768;2023-02-28T07:48:57;29.58;;;12.63;;
77888;SDS011;67082;41.704;44.768;2023-02-28T07:51:26;24.17;;;11.40;;
77888;SDS011;67082;41.704;44.768;2023-02-28T07:53:59;25.08;;;12.35;;
77888;SDS011;67082;41.704;44.768;2023-02-28T07:56:27;28.95;;;12.13;;
77888;SDS011;67082;41.704;44.768;2023-02-28T07:58:56;27.92;;;13.38;;
77888;SDS011;67082;41.704;44.768;2023-02-28T08:01:24;25.23;;;12.40;;
77888;SDS011;67082;41.704;44.768;2023-02-28T08:03:53;28.98;;;12.32;;
77888;SDS011;67082;41.704;44.768;2023-02-28T08:06:24;21.55;;;10.32;;
77888;SDS011;67082;41.704;44.768;2023-02-28T08:08:54;24.33;;;10.35;;
77888;SDS011;67082;41.704;44.768;2023-02-28T08:11:23;25.98;;;11.50;;
77888;SDS011;67082;41.704;44.768;2023-02-28T08:13:54;21.33;;;11.13;;
77888;SDS011;67082;41.704;44.768;2023-02-28T08:16:22;20.70;;;10.60;;
77888;SDS011;67082;41.704;44.768;2023-02-28T08:18:51;20.23;;;10.43;;
77888;SDS011;67082;41.704;44.768;2023-02-28T08:21:20;24.48;;;10.70;;
77888;SDS011;67082;41.704;44.768;2023-02-28T08:23:54;22.65;;;10.73;;
77888;SDS011;67082;41.704;44.768;2023-02-28T08:26:24;20.85;;;10.00;;
77888;SDS011;67082;41.704;44.768;2023-02-28T08:28:53;23.70;;;10.73;;
77888;SDS011;67082;41.704;44.768;2023-02-28T08:31:23;26.45;;;11.05;;
77888;SDS011;67082;41.704;44.768;2023-02-28T08:33:51;18.70;;;10.40;;
77888;SDS011;67082;41.704;44.768;2023-02-28T08:36:20;20.73;;;10.40;;
77888;SDS011;67082;41.704;44.768;2023-02-28T08:38:48;21.52;;;9.85;;
77888;SDS011;67082;41.704;44.768;2023-02-28T08:41:17;22.30;;;10.13;;
77888;SDS011;67082;41.704;44.768;2023-02-28T08:43:45;20.80;;;9.45;;
77888;SDS011;67082;41.704;44.768;2023-02-28T08:46:13;23.83;;;9.60;;
77888;SDS011;67082;41.704;44.768;2023-02-28T08:48:42;28.38;;;10.15;;
77888;SDS011;67082;41.704;44.768;2023-02-28T08:51:14;25.40;;;9.52;;
77888;SDS011;67082;41.704;44.768;2023-02-28T08:53:47;25.67;;;9.40;;
77888;SDS011;67082;41.704;44.768;2023-02-28T08:56:18;22.45;;;10.10;;
77888;SDS011;67082;41.704;44.768;2023-02-28T08:58:48;22.42;;;9.82;;
77888;SDS011;67082;41.704;44.768;2023-02-28T09:01:18;20.05;;;9.13;;
77888;SDS011;67082;41.704;44.768;2023-02-28T09:03:49;20.80;;;9.23;;
77888;SDS011;67082;41.704;44.768;2023-02-28T09:06:19;30.45;;;9.35;;
77888;SDS011;67082;41.704;44.768;2023-02-28T09:08:50;23.23;;;8.85;;
77888;SDS011;67082;41.704;44.768;2023-02-28T09:11:20;32.75;;;13.63;;
77888;SDS011;67082;41.704;44.768;2023-02-28T09:13:50;25.55;;;11.15;;
77888;SDS011;67082;41.704;44.768;2023-02-28T09:16:19;16.90;;;8.18;;
77888;SDS011;67082;41.704;44.768;2023-02-28T09:18:47;18.48;;;7.97;;
77888;SDS011;67082;41.704;44.768;2023-02-28T09:21:16;15.77;;;7.30;;
77888;SDS011;67082;41.704;44.768;2023-02-28T09:23:47;16.20;;;7.65;;
77888;SDS011;67082;41.704;44.768;2023-02-28T09:26:20;22.55;;;8.23;;
77888;SDS011;67082;41.704;44.768;2023-02-28T09:29:05;20.88;;;8.15;;
77888;SDS011;67082;41.704;44.768;2023-02-28T09:31:35;21.23;;;8.65;;
77888;SDS011;67082;41.704;44.768;2023-02-28T09:34:04;19.52;;;8.45;;
77888;SDS011;67082;41.704;44.768;2023-02-28T09:36:32;20.33;;;8.60;;
77888;SDS011;67082;41.704;44.768;2023-02-28T09:39:12;22.58;;;8.80;;
77888;SDS011;67082;41.704;44.768;2023-02-28T09:41:44;18.77;;;8.40;;
77888;SDS011;67082;41.704;44.768;2023-02-28T09:47:17;18.77;;;8.38;;
77888;SDS011;67082;41.704;44.768;2023-02-28T09:49:47;21.23;;;10.48;;
77888;SDS011;67082;41.704;44.768;2023-02-28T09:52:19;22.92;;;8.32;;
77888;SDS011;67082;41.704;44.768;2023-02-28T09:54:53;21.17;;;7.20;;
77888;SDS011;67082;41.704;44.768;2023-02-28T10:05:16;20.15;;;6.88;;
77888;SDS011;67082;41.704;44.768;2023-02-28T10:10:42;18.88;;;6.10;;
77888;SDS011;67082;41.704;44.768;2023-02-28T10:15:59;13.45;;;6.20;;
77888;SDS011;67082;41.704;44.768;2023-02-28T10:18:52;16.88;;;5.57;;
77888;SDS011;67082;41.704;44.768;2023-02-28T10:21:29;16.23;;;7.68;;
77888;SDS011;67082;41.704;44.768;2023-02-28T10:24:13;12.48;;;5.60;;
77888;SDS011;67082;41.704;44.768;2023-02-28T10:26:45;15.93;;;5.88;;
77888;SDS011;67082;41.704;44.768;2023-02-28T10:29:17;11.07;;;5.50;;
77888;SDS011;67082;41.704;44.768;2023-02-28T10:31:45;12.02;;;5.57;;
77888;SDS011;67082;41.704;44.768;2023-02-28T10:34:13;15.23;;;5.70;;
77888;SDS011;67082;41.704;44.768;2023-02-28T10:36:42;13.15;;;5.60;;
77888;SDS011;67082;41.704;44.768;2023-02-28T10:42:05;14.35;;;5.72;;
77888;SDS011;67082;41.704;44.768;2023-02-28T10:44:47;15.63;;;5.82;;
77888;SDS011;67082;41.704;44.768;2023-02-28T10:47:16;13.90;;;5.88;;
77888;SDS011;67082;41.704;44.768;2023-02-28T10:49:48;9.40;;;5.13;;
77888;SDS011;67082;41.704;44.768;2023-02-28T10:57:47;10.38;;;4.90;;
77888;SDS011;67082;41.704;44.768;2023-02-28T11:00:17;13.57;;;5.65;;
77888;SDS011;67082;41.704;44.768;2023-02-28T11:02:49;9.93;;;4.60;;
77888;SDS011;67082;41.704;44.768;2023-02-28T11:05:25;11.80;;;5.55;;
77888;SDS011;67082;41.704;44.768;2023-02-28T11:08:06;21.63;;;10.30;;
77888;SDS011;67082;41.704;44.768;2023-02-28T11:10:39;14.68;;;5.47;;
77888;SDS011;67082;41.704;44.768;2023-02-28T11:13:19;12.57;;;5.47;;
77888;SDS011;67082;41.704;44.768;2023-02-28T11:15:51;13.25;;;5.22;;
77888;SDS011;67082;41.704;44.768;2023-02-28T11:21:10;14.77;;;5.43;;
77888;SDS011;67082;41.704;44.768;2023-02-28T11:23:45;8.90;;;5.07;;
77888;SDS011;67082;41.704;44.768;2023-02-28T11:26:14;11.50;;;5.43;;
77888;SDS011;67082;41.704;44.768;2023-02-28T11:28:47;10.32;;;5.50;;
77888;SDS011;67082;41.704;44.768;2023-02-28T11:31:16;16.38;;;5.90;;
77888;SDS011;67082;41.704;44.768;2023-02-28T11:33:54;13.93;;;5.60;;
77888;SDS011;67082;41.704;44.768;2023-02-28T11:39:07;12.43;;;5.60;;
77888;SDS011;67082;41.704;44.768;2023-02-28T11:47:17;10.18;;;5.13;;
77888;SDS011;67082;41.704;44.768;2023-02-28T11:53:00;13.75;;;5.88;;
77888;SDS011;67082;41.704;44.768;2023-02-28T12:08:54;12.23;;;5.60;;
77888;SDS011;67082;41.704;44.768;2023-02-28T12:11:43;14.20;;;5.50;;
77888;SDS011;67082;41.704;44.768;2023-02-28T12:14:46;14.05;;;5.80;;
77888;SDS011;67082;41.704;44.768;2023-02-28T12:20:17;12.20;;;5.13;;
77888;SDS011;67082;41.704;44.768;2023-02-28T12:28:41;11.10;;;5.50;;
77888;SDS011;67082;41.704;44.768;2023-02-28T12:31:17;11.35;;;5.57;;
77888;SDS011;67082;41.704;44.768;2023-02-28T12:33:54;11.18;;;5.18;;
77888;SDS011;67082;41.704;44.768;2023-02-28T12:36:28;13.25;;;5.43;;
77888;SDS011;67082;41.704;44.768;2023-02-28T12:38:58;15.07;;;5.45;;
77888;SDS011;67082;41.704;44.768;2023-02-28T12:41:41;11.80;;;5.57;;
77888;SDS011;67082;41.704;44.768;2023-02-28T12:47:09;11.95;;;5.30;;
77888;SDS011;67082;41.704;44.768;2023-02-28T12:49:49;10.57;;;4.70;;
77888;SDS011;67082;41.704;44.768;2023-02-28T12:52:20;12.98;;;4.95;;
77888;SDS011;67082;41.704;44.768;2023-02-28T12:58:45;11.65;;;5.03;;
77888;SDS011;67082;41.704;44.768;2023-02-28T13:04:04;19.77;;;5.50;;
77888;SDS011;67082;41.704;44.768;2023-02-28T13:09:51;13.48;;;5.57;;
77888;SDS011;67082;41.704;44.768;2023-02-28T13:12:25;9.73;;;5.28;;
77888;SDS011;67082;41.704;44.768;2023-02-28T13:15:39;13.38;;;5.40;;
77888;SDS011;67082;41.704;44.768;2023-02-28T13:17:49;15.38;;;5.57;;
77888;SDS011;67082;41.704;44.768;2023-02-28T13:20:30;15.77;;;5.38;;
77888;SDS011;67082;41.704;44.768;2023-02-28T13:23:02;11.90;;;5.70;;
77888;SDS011;67082;41.704;44.768;2023-02-28T13:25:49;14.80;;;5.95;;
77888;SDS011;67082;41.704;44.768;2023-02-28T13:31:26;19.13;;;6.05;;
77888;SDS011;67082;41.704;44.768;2023-02-28T13:36:28;11.45;;;6.07;;
77888;SDS011;67082;41.704;44.768;2023-02-28T13:39:02;10.52;;;5.70;;
77888;SDS011;67082;41.704;44.768;2023-02-28T13:42:32;12.80;;;5.60;;
77888;SDS011;67082;41.704;44.768;2023-02-28T13:47:41;14.07;;;5.97;;
77888;SDS011;67082;41.704;44.768;2023-02-28T14:06:50;9.98;;;5.90;;
77888;SDS011;67082;41.704;44.768;2023-02-28T14:09:31;11.13;;;5.80;;
77888;SDS011;67082;41.704;44.768;2023-02-28T14:18:16;11.63;;;5.70;;
77888;SDS011;67082;41.704;44.768;2023-02-28T14:20:45;13.00;;;6.05;;
77888;SDS011;67082;41.704;44.768;2023-02-28T14:26:19;13.07;;;5.43;;
77888;SDS011;67082;41.704;44.768;2023-02-28T14:29:15;11.40;;;5.97;;
77888;SDS011;67082;41.704;44.768;2023-02-28T14:32:02;17.98;;;5.88;;
77888;SDS011;67082;41.704;44.768;2023-02-28T14:37:29;13.65;;;6.25;;
77888;SDS011;67082;41.704;44.768;2023-02-28T14:40:00;15.35;;;6.40;;
77888;SDS011;67082;41.704;44.768;2023-02-28T14:42:33;14.65;;;6.30;;
77888;SDS011;67082;41.704;44.768;2023-02-28T14:45:05;12.60;;;5.75;;
77888;SDS011;67082;41.704;44.768;2023-02-28T14:47:33;11.05;;;5.90;;
77888;SDS011;67082;41.704;44.768;2023-02-28T14:50:03;13.07;;;6.20;;
77888;SDS011;67082;41.704;44.768;2023-02-28T14:52:32;12.88;;;5.68;;
77888;SDS011;67082;41.704;44.768;2023-02-28T14:55:12;23.33;;;7.25;;
77888;SDS011;67082;41.704;44.768;2023-02-28T14:57:53;12.55;;;5.68;;
77888;SDS011;67082;41.704;44.768;2023-02-28T15:00:24;10.48;;;6.93;;
77888;SDS011;67082;41.704;44.768;2023-02-28T15:02:55;15.32;;;5.97;;
77888;SDS011;67082;41.704;44.768;2023-02-28T15:08:12;12.57;;;5.43;;
77888;SDS011;67082;41.704;44.768;2023-02-28T15:10:51;12.05;;;5.78;;
77888;SDS011;67082;41.704;44.768;2023-02-28T15:13:43;10.90;;;6.22;;
77888;SDS011;67082;41.704;44.768;2023-02-28T15:16:26;15.45;;;6.30;;
77888;SDS011;67082;41.704;44.768;2023-02-28T15:19:00;11.57;;;6.05;;
77888;SDS011;67082;41.704;44.768;2023-02-28T15:21:36;15.57;;;6.03;;
77888;SDS011;67082;41.704;44.768;2023-02-28T15:26:54;11.85;;;5.70;;
77888;SDS011;67082;41.704;44.768;2023-02-28T15:29:25;12.98;;;5.78;;
77888;SDS011;67082;41.704;44.768;2023-02-28T15:34:29;13.73;;;5.88;;
77888;SDS011;67082;41.704;44.768;2023-02-28T15:42:43;13.10;;;6.03;;
77888;SDS011;67082;41.704;44.768;2023-02-28T15:46:18;15.77;;;6.15;;
77888;SDS011;67082;41.704;44.768;2023-02-28T15:48:51;12.23;;;6.07;;
77888;SDS011;67082;41.704;44.768;2023-02-28T15:51:32;12.80;;;6.38;;
77888;SDS011;67082;41.704;44.768;2023-02-28T15:54:06;13.50;;;6.22;;
77888;SDS011;67082;41.704;44.768;2023-02-28T15:56:38;14.95;;;6.70;;
77888;SDS011;67082;41.704;44.768;2023-02-28T15:59:18;13.52;;;6.30;;
77888;SDS011;67082;41.704;44.768;2023-02-28T16:04:53;13.32;;;5.43;;
77888;SDS011;67082;41.704;44.768;2023-02-28T16:07:45;14.38;;;6.43;;
77888;SDS011;67082;41.704;44.768;2023-02-28T16:10:18;8.23;;;4.60;;
77888;SDS011;67082;41.704;44.768;2023-02-28T16:12:49;15.25;;;6.53;;
77888;SDS011;67082;41.704;44.768;2023-02-28T16:17:50;16.23;;;6.38;;
77888;SDS011;67082;41.704;44.768;2023-02-28T16:20:23;13.52;;;5.32;;
77888;SDS011;67082;41.704;44.768;2023-02-28T16:22:54;19.98;;;8.77;;
77888;SDS011;67082;41.704;44.768;2023-02-28T16:25:25;30.45;;;18.13;;
77888;SDS011;67082;41.704;44.768;2023-02-28T16:28:00;17.90;;;9.95;;
77888;SDS011;67082;41.704;44.768;2023-02-28T16:30:30;20.00;;;8.02;;
77888;SDS011;67082;41.704;44.768;2023-02-28T16:33:01;19.60;;;9.43;;
77888;SDS011;67082;41.704;44.768;2023-02-28T16:35:29;18.17;;;8.57;;
77888;SDS011;67082;41.704;44.768;2023-02-28T16:37:58;18.90;;;6.03;;
77888;SDS011;67082;41.704;44.768;2023-02-28T16:40:56;11.27;;;5.68;;
77888;SDS011;67082;41.704;44.768;2023-02-28T16:43:39;15.32;;;6.60;;
77888;SDS011;67082;41.704;44.768;2023-02-28T16:46:17;15.20;;;6.93;;
77888;SDS011;67082;41.704;44.768;2023-02-28T16:48:53;12.23;;;6.10;;
77888;SDS011;67082;41.704;44.768;2023-02-28T16:51:30;15.68;;;6.40;;
77888;SDS011;67082;41.704;44.768;2023-02-28T16:54:02;15.20;;;7.60;;
77888;SDS011;67082;41.704;44.768;2023-02-28T16:56:32;19.00;;;7.47;;
77888;SDS011;67082;41.704;44.768;2023-02-28T16:59:01;17.48;;;7.63;;
77888;SDS011;67082;41.704;44.768;2023-02-28T17:01:30;18.15;;;8.48;;
77888;SDS011;67082;41.704;44.768;2023-02-28T17:03:59;19.27;;;7.80;;
77888;SDS011;67082;41.704;44.768;2023-02-28T17:06:29;15.02;;;8.23;;
77888;SDS011;67082;41.704;44.768;2023-02-28T17:08:58;22.88;;;8.50;;
77888;SDS011;67082;41.704;44.768;2023-02-28T17:11:27;17.40;;;7.82;;
77888;SDS011;67082;41.704;44.768;2023-02-28T17:13:59;23.13;;;9.07;;
77888;SDS011;67082;41.704;44.768;2023-02-28T17:16:32;19.50;;;8.85;;
77888;SDS011;67082;41.704;44.768;2023-02-28T17:19:03;24.70;;;9.20;;
77888;SDS011;67082;41.704;44.768;2023-02-28T17:21:33;17.80;;;8.80;;
77888;SDS011;67082;41.704;44.768;2023-02-28T17:24:02;27.33;;;9.50;;
77888;SDS011;67082;41.704;44.768;2023-02-28T17:26:30;20.15;;;9.38;;
77888;SDS011;67082;41.704;44.768;2023-02-28T17:29:00;20.45;;;9.30;;
77888;SDS011;67082;41.704;44.768;2023-02-28T17:31:29;19.70;;;8.57;;
77888;SDS011;67082;41.704;44.768;2023-02-28T17:34:00;17.40;;;8.55;;
77888;SDS011;67082;41.704;44.768;2023-02-28T17:36:29;22.52;;;8.40;;
77888;SDS011;67082;41.704;44.768;2023-02-28T17:38:58;22.10;;;10.05;;
77888;SDS011;67082;41.704;44.768;2023-02-28T17:41:26;28.75;;;10.80;;
77888;SDS011;67082;41.704;44.768;2023-02-28T17:43:57;20.65;;;9.32;;
77888;SDS011;67082;41.704;44.768;2023-02-28T17:46:26;22.15;;;9.35;;
77888;SDS011;67082;41.704;44.768;2023-02-28T17:48:56;15.63;;;8.73;;